YHEG weather

Hells Gate Airport
Queensland, Australia

Public forecast

Using degrees Celsius for public forecast. Weather courtesy of forecast.io.

METAR (pilot weather report)

Closest report is Normanton Airport, 155.2 nm (287.5 km) E. Retrieved 2019/04/24 10:00 UTC (4 minutes ago):

YNTN 241000Z AUTO 19007KT 9999 // NCD 30/13 Q1011

TAF (pilot weather forecast)

Closest forecast is Cairns International Airport, 425.2 nm (787.5 km) E. Retrieved 2019/04/24 06:00 UTC (4 hours ago):

TAF YBCS 240528Z 2406/2506 12014KT 9999 FEW030 FM240800 16007KT 9999 FEW025 SCT040 FM250000 12014KT 9999 FEW030